Clarksville, IN (47129)

3:44 AM EDT on March 23, 2017 (GMT -0400)
Parkwood | | Change Station
Active Advisory: Freeze Warning

Elev 469 ft 38.33 °N, 85.78 °W | Updated 12 seconds ago

Clear
Clear
30.7 °F
Feels Like 31 °F
N
0.4
Wind Variable Wind from NNW
Gusts 2.5 mph

Today
High -- | Low -- °F
--% Chance of Precip.
Yesterday
High -- | Low -- °F
Precip. -- in
Pressure 30.43 in
Visibility 10.0 miles
Clouds Clear
Windchill 31 °F
Dew Point -4 °F
Humidity 22%
Rainfall 0.00 in
Snow Depth Not available.
7:41 AM 7:58 PM
Waning Crescent, 25% visible
METAR KLOU 230653Z AUTO 07004KT 10SM CLR 02/M07 A3042 RMK AO2 SLP303 T00171072
Pressure 30.43 in
Visibility 10.0 miles
Clouds Clear
Windchill 31 °F
Dew Point -4 °F
Humidity 22%
Rainfall 0.00 in
Snow Depth Not available.
7:41 AM 7:58 PM
Waning Crescent, 25% visible
METAR KLOU 230653Z AUTO 07004KT 10SM CLR 02/M07 A3042 RMK AO2 SLP303 T00171072

Get Your Daily Forecast Email!

Thanks for signing up!

Be on the lookout for a verification email in your inbox.

You'll start receiving severe weather alerts in your inbox..

×

10-Day Weather Forecast

Almanac

Astronomy

Mar. 23, 2017 Rise Set
Actual Time
Civil Twilight
Nautical Twilight
Astronomical Twilight
Moon
Length of Visible Light
Length of Day
Tomorrow will be .
, % of the Moon is Illuminated

Today's Extremes

State Highs State Lows

Community

WunderPhotos

Upload Photos

1,962,540 photos uploaded!

WunderBlog® & News

Nearby

Air Quality

  Air Quality AQ Index Pollutant
Not available.

Snow Depth

Station Depth Elevation

Earthquake Activity

City Distance Mag. Time & Date
Minimum magnitude displayed is 2.5.

Earthquake Activity

City Distance Mag. Time & Date
Minimum magnitude displayed is 2.5.

Coastal Water Temperatures

Place Temperature

Stations

Nearby Weather Stations

Station Location Temp. Windchill Dew Point Humidity Wind Precip. Elev Updated Type
                   

Watches & Warnings

Freeze Warning
Issued: 9:47 PM EDT Mar. 22, 2017 – National Weather Service

... Freeze warning remains in effect from 1 am to 10 am EDT
Thursday...

* temperatures..28 to 32 degrees late tonight through Thursday
mid morning.

* Impacts... very sensitive vegetation may be harmed.

Precautionary/preparedness actions...

A freeze warning means sub-freezing temperatures are imminent or
highly likely.



Zt